Time;durP1;ratioP1;P1;durP2;ratioP2;P2;SDS_P1;SDS_P2;PMS_P1;PMS_P2;Temp;Humidity;BMP_temperature;BMP_pressure;BME280_temperature;BME280_humidity;BME280_pressure;Samples;Min_cycle;Max_cycle;Signal;HPM_P1;HPM_P2
2022/06/26 00:00:42;;;;;;;1.00;1.00;;;23.20;73.50;;;;;;5067953;28;43995;-71
2022/06/26 00:03:10;;;;;;;1.00;1.00;;;23.10;73.60;;;;;;5067826;28;44317;-70
2022/06/26 00:05:38;;;;;;;1.00;1.00;;;23.10;73.90;;;;;;5067670;28;44097;-69
2022/06/26 00:08:08;;;;;;;0.90;0.90;;;23.10;73.90;;;;;;5067819;28;44048;-70
2022/06/26 00:10:36;;;;;;;0.80;0.80;;;23.10;74.10;;;;;;5068257;28;43876;-71
2022/06/26 00:13:04;;;;;;;0.90;0.90;;;23.10;74.10;;;;;;5067541;28;43858;-70
2022/06/26 00:15:36;;;;;;;0.83;0.83;;;23.10;74.20;;;;;;5067698;28;44010;-71
2022/06/26 00:18:04;;;;;;;0.90;0.90;;;23.10;74.20;;;;;;5049272;28;43932;-70
2022/06/26 00:20:32;;;;;;;1.00;1.00;;;23.00;74.70;;;;;;5049761;28;44033;-70
2022/06/26 00:23:00;;;;;;;1.10;1.10;;;23.00;75.00;;;;;;5049049;28;45995;-70
2022/06/26 00:25:28;;;;;;;1.17;1.17;;;23.10;74.90;;;;;;5067783;28;43908;-70
2022/06/26 00:27:56;;;;;;;1.00;1.00;;;23.20;74.70;;;;;;5067903;28;43988;-70
2022/06/26 00:30:24;;;;;;;0.90;0.90;;;23.30;74.10;;;;;;5049664;28;43933;-70
2022/06/26 00:32:56;;;;;;;0.80;0.80;;;23.40;73.70;;;;;;5067378;28;43917;-70
2022/06/26 00:35:24;;;;;;;0.90;0.90;;;23.60;73.20;;;;;;5048071;28;45429;-70
2022/06/26 00:37:52;;;;;;;1.00;1.00;;;23.70;72.70;;;;;;5067541;28;43979;-69
2022/06/26 00:40:20;;;;;;;1.00;1.00;;;23.80;72.20;;;;;;5049264;28;43792;-70
2022/06/26 00:42:48;;;;;;;0.90;0.90;;;23.90;71.90;;;;;;5048709;28;44880;-70
2022/06/26 00:45:16;;;;;;;0.70;0.70;;;24.00;71.60;;;;;;5048670;28;44963;-71
2022/06/26 00:47:46;;;;;;;0.90;0.90;;;24.10;71.20;;;;;;5067394;28;43996;-69
2022/06/26 00:50:15;;;;;;;0.90;0.90;;;24.20;71.00;;;;;;5067548;28;44080;-70
2022/06/26 00:52:43;;;;;;;1.00;1.00;;;24.20;70.70;;;;;;5060391;28;43772;-71
2022/06/26 00:55:11;;;;;;;1.10;1.10;;;24.20;70.60;;;;;;5042101;28;44903;-70
2022/06/26 00:57:39;;;;;;;1.10;1.10;;;24.10;70.90;;;;;;5048779;28;43930;-71
2022/06/26 01:00:08;;;;;;;1.00;1.00;;;23.90;71.20;;;;;;5049325;28;43506;-71
2022/06/26 01:02:37;;;;;;;0.90;0.90;;;23.80;71.70;;;;;;5038739;28;43997;-69
2022/06/26 01:05:06;;;;;;;0.93;0.93;;;23.60;71.90;;;;;;5040351;28;43993;-70
2022/06/26 01:07:35;;;;;;;1.00;1.00;;;23.50;72.40;;;;;;5038936;28;43965;-71
2022/06/26 01:10:04;;;;;;;0.90;0.90;;;23.40;72.80;;;;;;5047305;28;44030;-70
2022/06/26 01:12:32;;;;;;;0.80;0.80;;;23.40;73.20;;;;;;5045167;28;45763;-70
2022/06/26 01:15:07;;;;;;;0.90;0.90;;;23.30;73.30;;;;;;5045069;28;44003;-69
2022/06/26 01:17:35;;;;;;;0.97;0.97;;;23.20;73.50;;;;;;5044722;28;43909;-70
2022/06/26 01:20:05;;;;;;;0.80;0.80;;;23.20;73.60;;;;;;5045215;28;43912;-69
2022/06/26 01:22:35;;;;;;;1.20;1.20;;;23.10;73.80;;;;;;5044947;28;45679;-70
2022/06/26 01:25:03;;;;;;;0.87;0.87;;;23.10;73.90;;;;;;5031454;28;44624;-71
2022/06/26 01:27:31;;;;;;;0.90;0.90;;;23.10;74.00;;;;;;5044772;28;44069;-70
2022/06/26 01:30:00;;;;;;;0.97;0.97;;;23.10;74.10;;;;;;5045322;28;44078;-70
2022/06/26 01:32:30;;;;;;;0.80;0.80;;;23.00;74.00;;;;;;5044661;28;44033;-69
2022/06/26 01:35:01;;;;;;;0.80;0.80;;;23.10;74.20;;;;;;5046755;28;44025;-70
2022/06/26 01:37:31;;;;;;;1.40;0.90;;;23.00;74.20;;;;;;5045025;28;43886;-70
2022/06/26 01:40:02;;;;;;;1.00;1.00;;;23.00;74.20;;;;;;5045354;28;44024;-71
2022/06/26 01:42:30;;;;;;;1.00;1.00;;;23.00;74.30;;;;;;5044692;28;46859;-70
2022/06/26 01:44:58;;;;;;;0.80;0.80;;;23.00;74.90;;;;;;5046924;28;43421;-70
2022/06/26 01:47:26;;;;;;;0.90;0.90;;;23.00;74.90;;;;;;5048055;28;44032;-71
2022/06/26 01:49:54;;;;;;;0.83;0.83;;;23.20;74.70;;;;;;5049230;28;44005;-70
2022/06/26 01:52:22;;;;;;;0.90;0.90;;;23.30;74.20;;;;;;5031285;28;44058;-71
2022/06/26 01:54:50;;;;;;;1.10;1.10;;;23.40;73.50;;;;;;5028622;28;44844;-71
2022/06/26 01:57:21;;;;;;;0.90;0.90;;;23.50;73.70;;;;;;5045305;28;43425;-70
2022/06/26 01:59:54;;;;;;;0.90;0.90;;;23.70;72.60;;;;;;5047348;28;43973;-70
2022/06/26 02:02:24;;;;;;;0.97;0.97;;;23.80;72.10;;;;;;5047753;28;46037;-70
2022/06/26 02:04:52;;;;;;;0.90;0.90;;;23.90;71.80;;;;;;5048068;28;45923;-70
2022/06/26 02:07:20;;;;;;;0.90;0.90;;;24.00;71.50;;;;;;5047964;28;44086;-70
2022/06/26 02:15:29;;;;;;;1.00;1.00;;;23.90;71.40;;;;;;5048256;28;44944;-71
2022/06/26 02:18:00;;;;;;;0.80;0.80;;;23.80;71.90;;;;;;5047855;28;44013;-69
2022/06/26 02:20:28;;;;;;;1.00;1.00;;;23.60;72.20;;;;;;5050142;28;43940;-70
2022/06/26 02:22:56;;;;;;;0.73;0.73;;;23.50;72.50;;;;;;5049472;28;45019;-70
2022/06/26 02:25:25;;;;;;;0.80;0.80;;;23.40;72.90;;;;;;5047914;28;44411;-70
2022/06/26 02:27:56;;;;;;;0.83;0.83;;;23.30;73.10;;;;;;5047658;28;43980;-71
2022/06/26 02:30:24;;;;;;;1.00;1.00;;;23.30;73.50;;;;;;5048208;28;44151;-69
2022/06/26 02:32:52;;;;;;;0.80;0.80;;;23.20;73.50;;;;;;5047535;28;45829;-70
2022/06/26 02:35:20;;;;;;;0.80;0.80;;;23.10;73.70;;;;;;5047535;28;44385;-70
2022/06/26 02:37:49;;;;;;;0.80;0.80;;;23.10;73.80;;;;;;5047552;28;43427;-70
2022/06/26 02:40:20;;;;;;;0.70;0.70;;;23.10;73.90;;;;;;5047654;28;43999;-70
2022/06/26 02:42:49;;;;;;;0.80;0.80;;;23.00;74.70;;;;;;5047400;28;45855;-70
2022/06/26 02:45:18;;;;;;;0.90;0.90;;;23.00;74.90;;;;;;5047505;28;45215;-70
2022/06/26 02:47:46;;;;;;;0.93;0.93;;;23.10;74.70;;;;;;5037701;28;44009;-71
2022/06/26 02:50:16;;;;;;;0.90;0.90;;;23.20;74.40;;;;;;5038212;28;43947;-71
2022/06/26 02:52:44;;;;;;;0.90;0.90;;;23.30;73.90;;;;;;5027556;28;46791;-71
2022/06/26 02:55:13;;;;;;;0.83;0.83;;;23.40;73.50;;;;;;5047309;28;45009;-71
2022/06/26 02:57:43;;;;;;;0.80;0.80;;;23.50;73.00;;;;;;5041706;28;43928;-70
2022/06/26 03:00:12;;;;;;;0.87;0.87;;;23.70;72.60;;;;;;5047631;28;43881;-71
2022/06/26 03:02:47;;;;;;;1.00;1.00;;;23.80;72.10;;;;;;5046736;28;46750;-70
2022/06/26 03:05:15;;;;;;;0.73;0.73;;;23.90;71.80;;;;;;5048560;28;44071;-70
2022/06/26 03:07:43;;;;;;;0.80;0.80;;;24.00;71.50;;;;;;5048612;28;44030;-69
2022/06/26 03:10:11;;;;;;;0.87;0.87;;;24.10;71.10;;;;;;5047742;28;44003;-71
2022/06/26 03:12:46;;;;;;;0.87;0.87;;;24.10;70.90;;;;;;5048609;28;43957;-70
2022/06/26 03:15:14;;;;;;;0.80;0.80;;;24.10;71.10;;;;;;5047057;28;45178;-70
2022/06/26 03:17:45;;;;;;;1.00;1.00;;;23.90;71.30;;;;;;5046996;28;44132;-70
2022/06/26 03:20:16;;;;;;;0.80;0.80;;;23.80;71.70;;;;;;5047353;28;44277;-70
2022/06/26 03:22:44;;;;;;;0.93;0.93;;;23.60;71.90;;;;;;5046775;28;44005;-70
2022/06/26 03:25:12;;;;;;;0.93;0.90;;;23.50;72.40;;;;;;5046860;28;43385;-70
2022/06/26 03:27:41;;;;;;;0.80;0.80;;;23.40;72.80;;;;;;5039902;28;43998;-71
2022/06/26 03:30:11;;;;;;;1.20;1.10;;;23.30;73.00;;;;;;5046634;28;43990;-70
2022/06/26 03:32:43;;;;;;;1.30;1.20;;;23.20;73.30;;;;;;5046592;28;44038;-70
2022/06/26 03:35:11;;;;;;;1.33;1.33;;;23.20;74.20;;;;;;5045561;28;44099;-71
2022/06/26 03:37:41;;;;;;;1.77;1.67;;;23.20;73.70;;;;;;5046907;28;44032;-71
2022/06/26 03:40:10;;;;;;;2.10;1.97;;;23.10;73.80;;;;;;5048273;28;44035;-70
2022/06/26 03:42:39;;;;;;;2.30;2.10;;;23.10;73.90;;;;;;5046694;28;44032;-71
2022/06/26 03:45:08;;;;;;;2.50;2.30;;;23.10;74.10;;;;;;5048097;28;43968;-70
2022/06/26 03:47:36;;;;;;;2.90;2.60;;;23.00;74.00;;;;;;5033012;28;43336;-70
2022/06/26 03:50:06;;;;;;;2.50;2.30;;;23.00;74.10;;;;;;5047087;28;43977;-71
2022/06/26 03:52:35;;;;;;;3.20;2.43;;;23.00;74.10;;;;;;5027667;28;47251;-70
2022/06/26 03:55:10;;;;;;;4.07;2.60;;;23.00;74.20;;;;;;5043529;28;44076;-69
2022/06/26 03:57:39;;;;;;;5.63;3.20;;;23.00;74.30;;;;;;5040104;28;43396;-69
2022/06/26 04:00:10;;;;;;;4.13;3.07;;;23.00;75.00;;;;;;5040616;28;44025;-71
2022/06/26 04:02:44;;;;;;;6.37;3.53;;;23.00;74.90;;;;;;5065739;28;44738;-70
2022/06/26 04:05:20;;;;;;;4.23;3.60;;;23.10;74.60;;;;;;5049688;28;45511;-71
2022/06/26 04:07:48;;;;;;;5.30;4.03;;;23.30;74.20;;;;;;5049402;28;44028;-70
2022/06/26 04:10:28;;;;;;;5.90;3.83;;;23.40;73.60;;;;;;5050244;28;44002;-70
2022/06/26 04:12:59;;;;;;;5.33;3.70;;;23.50;73.10;;;;;;5049736;28;44829;-70
2022/06/26 04:15:28;;;;;;;6.43;4.03;;;23.70;72.80;;;;;;5049614;28;44008;-70
2022/06/26 04:17:56;;;;;;;7.83;4.23;;;23.80;72.20;;;;;;5049743;28;43993;-69
2022/06/26 04:20:24;;;;;;;6.97;4.07;;;23.90;72.00;;;;;;5068327;28;44045;-70
2022/06/26 04:22:56;;;;;;;8.97;4.13;;;24.00;71.60;;;;;;5049759;28;45616;-71
2022/06/26 04:25:28;;;;;;;7.30;4.30;;;24.00;71.20;;;;;;5049523;28;44882;-71
2022/06/26 04:27:56;;;;;;;9.23;5.00;;;24.00;71.30;;;;;;5049394;28;43881;-70
2022/06/26 04:30:24;;;;;;;9.57;4.63;;;23.90;71.60;;;;;;5049610;28;44244;-70
2022/06/26 04:32:52;;;;;;;6.43;4.00;;;23.70;71.90;;;;;;5049014;28;44541;-70
2022/06/26 04:35:20;;;;;;;8.73;4.33;;;23.60;72.30;;;;;;5049263;28;44970;-70
2022/06/26 04:37:50;;;;;;;4.33;3.90;;;23.50;72.60;;;;;;5049208;28;43908;-70
2022/06/26 04:40:20;;;;;;;5.70;4.20;;;23.40;72.90;;;;;;5049199;28;44032;-70
2022/06/26 04:42:50;;;;;;;5.57;4.03;;;23.30;73.20;;;;;;5049170;28;45750;-70
2022/06/26 04:45:18;;;;;;;6.57;4.23;;;23.20;73.50;;;;;;5049082;28;45356;-71
2022/06/26 04:47:47;;;;;;;8.57;4.40;;;23.20;73.60;;;;;;5042677;28;43981;-70
2022/06/26 04:50:18;;;;;;;5.17;4.10;;;23.10;73.80;;;;;;5043268;28;43879;-71
2022/06/26 04:52:46;;;;;;;5.83;3.90;;;23.10;73.90;;;;;;5048957;28;43909;-70
2022/06/26 04:55:15;;;;;;;6.53;4.27;;;23.10;74.10;;;;;;5048826;28;43986;-70
2022/06/26 04:57:46;;;;;;;9.63;5.03;;;23.10;74.10;;;;;;5048853;28;44027;-70
2022/06/26 05:00:16;;;;;;;6.10;4.63;;;23.00;74.50;;;;;;5049521;28;43889;-70
2022/06/26 05:02:57;;;;;;;8.93;5.00;;;23.00;75.00;;;;;;5048719;28;44070;-71
2022/06/26 05:05:40;;;;;;;7.73;4.57;;;23.00;74.90;;;;;;5048720;28;44589;-70
2022/06/26 05:08:40;;;;;;;9.50;4.83;;;23.10;74.70;;;;;;5042634;28;44052;-70
2022/06/26 05:11:08;;;;;;;8.43;5.17;;;23.30;74.30;;;;;;5067594;28;43944;-70
2022/06/26 05:13:39;;;;;;;8.10;5.37;;;23.40;73.80;;;;;;5066944;28;43987;-70
2022/06/26 05:16:26;;;;;;;7.57;4.80;;;23.50;73.20;;;;;;5063921;28;43947;-71
2022/06/26 05:18:56;;;;;;;6.43;4.70;;;23.60;72.80;;;;;;5048784;28;43847;-70
2022/06/26 05:21:25;;;;;;;8.80;5.07;;;23.70;72.30;;;;;;5048202;28;43961;-70
2022/06/26 05:23:53;;;;;;;8.53;5.50;;;23.80;72.10;;;;;;5048398;28;44041;-69
2022/06/26 05:26:22;;;;;;;9.97;5.40;;;23.90;72.40;;;;;;5048639;28;44728;-70
2022/06/26 05:28:53;;;;;;;7.10;4.87;;;24.00;71.40;;;;;;5048600;28;43423;-69
2022/06/26 05:31:21;;;;;;;8.10;5.37;;;24.00;71.30;;;;;;5060902;28;44032;-70
2022/06/26 05:33:51;;;;;;;9.87;5.33;;;24.00;71.60;;;;;;5041925;28;45812;-70
2022/06/26 05:36:20;;;;;;;7.80;5.37;;;23.80;71.80;;;;;;5028679;28;43973;-69
2022/06/26 05:38:49;;;;;;;7.30;4.87;;;23.70;72.00;;;;;;5048316;28;43916;-70
2022/06/26 05:41:17;;;;;;;4.63;4.13;;;23.50;72.20;;;;;;5048426;28;43898;-69
2022/06/26 05:43:45;;;;;;;6.00;4.60;;;23.40;72.60;;;;;;5048252;28;43938;-69
2022/06/26 05:46:14;;;;;;;5.80;4.60;;;23.30;73.00;;;;;;5048089;28;44567;-70
2022/06/26 05:49:07;;;;;;;7.10;4.30;;;23.30;73.30;;;;;;5054474;28;44012;-69
2022/06/26 05:51:42;;;;;;;7.20;5.13;;;23.20;73.50;;;;;;5048718;28;43978;-69
2022/06/26 05:54:18;;;;;;;7.33;5.20;;;23.10;73.70;;;;;;5047984;28;45688;-71
2022/06/26 05:57:06;;;;;;;6.27;4.50;;;23.10;73.90;;;;;;5048394;28;43979;-71
2022/06/26 05:59:34;;;;;;;6.30;4.77;;;23.00;73.90;;;;;;5063191;28;44020;-70
2022/06/26 06:02:21;;;;;;;6.87;4.77;;;23.00;74.00;;;;;;5065838;28;43936;-69
2022/06/26 06:04:51;;;;;;;6.73;4.83;;;23.00;74.10;;;;;;5048010;28;44017;-69
2022/06/26 06:07:19;;;;;;;6.40;4.73;;;23.00;74.20;;;;;;5047854;28;43500;-70
2022/06/26 06:09:47;;;;;;;7.90;4.93;;;23.00;74.30;;;;;;5047918;28;44035;-69
2022/06/26 06:12:15;;;;;;;6.33;4.83;;;23.00;74.30;;;;;;5048332;28;43878;-71
2022/06/26 06:14:45;;;;;;;5.67;4.77;;;22.90;74.30;;;;;;5047799;28;44026;-71
2022/06/26 06:19:59;;;;;;;5.77;4.60;;;23.00;75.20;;;;;;5048172;28;43868;-71
2022/06/26 06:22:34;;;;;;;6.40;4.73;;;23.00;74.90;;;;;;5048203;28;44166;-71
2022/06/26 06:25:02;;;;;;;6.03;4.60;;;23.20;74.50;;;;;;5047813;28;45341;-71
2022/06/26 06:27:38;;;;;;;6.80;5.03;;;23.30;74.00;;;;;;5047701;28;43442;-70
2022/06/26 06:30:12;;;;;;;6.10;4.77;;;23.40;73.50;;;;;;5047824;28;43437;-69
2022/06/26 06:32:40;;;;;;;6.27;4.57;;;23.60;73.10;;;;;;5033680;28;43880;-70
2022/06/26 06:35:19;;;;;;;5.90;4.73;;;23.70;72.80;;;;;;5048126;28;43968;-70
2022/06/26 06:37:47;;;;;;;5.67;4.33;;;23.80;72.30;;;;;;5049675;28;44420;-70
2022/06/26 06:40:15;;;;;;;7.27;5.30;;;23.90;72.00;;;;;;5051034;28;43979;-70
2022/06/26 06:42:44;;;;;;;6.53;5.07;;;23.90;71.70;;;;;;5051411;28;43849;-70
2022/06/26 06:45:14;;;;;;;7.83;5.07;;;24.00;71.50;;;;;;5050575;28;44973;-71
2022/06/26 06:48:04;;;;;;;4.97;4.47;;;23.90;71.50;;;;;;5050765;28;44760;-70
2022/06/26 06:50:39;;;;;;;5.07;4.57;;;23.80;71.80;;;;;;5066179;28;43341;-70
2022/06/26 06:53:09;;;;;;;4.70;4.30;;;23.60;72.10;;;;;;5051133;28;43972;-69
2022/06/26 06:55:37;;;;;;;6.00;4.60;;;23.50;72.40;;;;;;5050645;28;45732;-70
2022/06/26 06:58:05;;;;;;;5.00;4.47;;;23.40;72.90;;;;;;5050617;28;43863;-70
2022/06/26 07:00:34;;;;;;;4.90;4.40;;;23.30;73.20;;;;;;5050534;28;43953;-70
2022/06/26 07:03:05;;;;;;;5.10;4.60;;;23.20;73.40;;;;;;5051204;28;43981;-70
2022/06/26 07:05:33;;;;;;;9.10;4.80;;;23.10;73.60;;;;;;5050556;28;43934;-70
2022/06/26 07:08:02;;;;;;;6.80;4.73;;;23.10;73.80;;;;;;5050523;28;43988;-68
2022/06/26 07:10:30;;;;;;;5.03;4.50;;;23.00;74.00;;;;;;5050765;28;43440;-71
2022/06/26 07:12:59;;;;;;;5.83;4.57;;;23.00;74.10;;;;;;5033775;28;43989;-69
2022/06/26 07:15:28;;;;;;;5.47;4.33;;;23.00;74.20;;;;;;5048787;28;45040;-70
2022/06/26 07:17:57;;;;;;;4.87;4.33;;;23.00;74.30;;;;;;5050510;28;44604;-71
2022/06/26 07:20:25;;;;;;;5.07;4.70;;;22.90;74.20;;;;;;5050566;28;43948;-70
2022/06/26 07:22:55;;;;;;;4.77;4.23;;;22.90;74.30;;;;;;5050986;28;43841;-71
2022/06/26 07:25:33;;;;;;;4.63;4.13;;;22.90;74.30;;;;;;5050229;28;45181;-70
2022/06/26 07:28:04;;;;;;;4.40;4.00;;;22.90;75.00;;;;;;5050411;28;44293;-70
2022/06/26 07:30:36;;;;;;;4.83;4.43;;;22.90;75.10;;;;;;5031042;28;43991;-69
2022/06/26 07:33:05;;;;;;;4.47;3.93;;;23.00;75.00;;;;;;5050677;28;43947;-70
2022/06/26 07:35:33;;;;;;;4.40;4.00;;;23.10;74.70;;;;;;5068345;28;43948;-70
2022/06/26 07:38:04;;;;;;;4.20;3.80;;;23.20;74.20;;;;;;5049956;28;44379;-70
2022/06/26 07:40:34;;;;;;;4.53;4.13;;;23.30;73.70;;;;;;5049866;28;44072;-69
2022/06/26 07:43:04;;;;;;;4.07;3.73;;;23.50;73.50;;;;;;5049761;28;43976;-71
2022/06/26 07:45:35;;;;;;;6.03;3.90;;;23.60;73.00;;;;;;5049903;28;44142;-71
2022/06/26 07:48:07;;;;;;;6.30;4.00;;;23.70;72.60;;;;;;5049929;28;43908;-71
2022/06/26 07:50:39;;;;;;;4.10;3.80;;;23.80;72.30;;;;;;5049863;28;43923;-71
2022/06/26 07:53:07;;;;;;;4.70;4.30;;;23.90;72.00;;;;;;5068746;28;44016;-69
2022/06/26 07:55:37;;;;;;;4.17;3.77;;;23.90;71.70;;;;;;5068273;28;43992;-69
2022/06/26 07:58:12;;;;;;;3.77;3.47;;;24.00;71.50;;;;;;5068235;28;43952;-70
2022/06/26 08:00:40;;;;;;;4.47;4.03;;;24.00;71.20;;;;;;5067771;28;43767;-69
2022/06/26 08:03:09;;;;;;;4.07;3.77;;;24.00;71.40;;;;;;5068602;28;43916;-71
2022/06/26 08:05:38;;;;;;;3.80;3.50;;;23.90;71.70;;;;;;5068113;28;43953;-69
2022/06/26 08:08:07;;;;;;;4.10;3.70;;;23.70;72.00;;;;;;5068308;28;43792;-70
2022/06/26 08:10:37;;;;;;;3.47;3.27;;;23.50;72.20;;;;;;5067926;28;43889;-70
2022/06/26 08:13:05;;;;;;;3.63;3.43;;;23.40;72.70;;;;;;5068441;28;43357;-70
2022/06/26 08:15:33;;;;;;;3.23;3.03;;;23.30;73.00;;;;;;5067838;28;43897;-70
2022/06/26 08:18:01;;;;;;;3.83;3.53;;;23.20;73.30;;;;;;5067638;28;43889;-71
2022/06/26 08:20:29;;;;;;;3.53;3.23;;;23.10;73.60;;;;;;5068291;28;43984;-72
2022/06/26 08:22:57;;;;;;;3.57;3.33;;;23.10;73.80;;;;;;5068573;28;43822;-71
2022/06/26 08:25:25;;;;;;;3.40;3.20;;;23.10;74.00;;;;;;5067692;28;43560;-70
2022/06/26 08:27:55;;;;;;;3.30;3.10;;;23.00;74.80;;;;;;5067829;28;44146;-70
2022/06/26 08:30:23;;;;;;;3.60;3.30;;;23.00;74.20;;;;;;5067411;28;43918;-70
2022/06/26 08:32:54;;;;;;;3.40;3.20;;;22.90;74.10;;;;;;5068143;28;43384;-71
2022/06/26 08:35:22;;;;;;;3.53;3.33;;;22.90;74.20;;;;;;5067537;28;43939;-70
2022/06/26 08:37:50;;;;;;;3.40;3.20;;;22.90;74.30;;;;;;5049148;28;44892;-70
2022/06/26 08:40:18;;;;;;;3.60;3.30;;;22.90;74.40;;;;;;5067267;28;43956;-71
2022/06/26 08:42:49;;;;;;;4.20;3.97;;;22.90;74.40;;;;;;5067898;28;43833;-71
2022/06/26 08:45:19;;;;;;;3.43;3.23;;;22.90;74.40;;;;;;5049311;28;46200;-69
2022/06/26 08:47:49;;;;;;;4.10;3.70;;;22.90;74.70;;;;;;5067641;28;43803;-70
2022/06/26 08:50:22;;;;;;;3.63;3.43;;;22.90;75.10;;;;;;5054217;28;44029;-71
2022/06/26 08:52:52;;;;;;;3.40;3.20;;;23.00;75.20;;;;;;5062308;28;43965;-69
2022/06/26 08:55:20;;;;;;;3.70;3.40;;;23.10;74.90;;;;;;5066162;28;44070;-70
2022/06/26 08:57:48;;;;;;;3.40;3.20;;;23.20;75.20;;;;;;5067248;28;44002;-71
2022/06/26 09:00:16;;;;;;;3.27;3.07;;;23.30;73.90;;;;;;5066970;28;44004;-71
2022/06/26 09:02:46;;;;;;;3.00;2.90;;;23.40;73.40;;;;;;5067458;28;43483;-70
2022/06/26 09:05:14;;;;;;;4.20;3.40;;;23.60;73.10;;;;;;5067234;28;43927;-70
2022/06/26 09:07:46;;;;;;;3.33;3.13;;;23.70;72.70;;;;;;5066786;28;43999;-72
2022/06/26 09:10:17;;;;;;;3.13;2.93;;;23.70;72.20;;;;;;5067329;28;43810;-70
2022/06/26 09:12:51;;;;;;;3.47;3.17;;;23.80;72.10;;;;;;5067680;28;43924;-71
2022/06/26 09:15:19;;;;;;;3.30;3.10;;;23.90;71.80;;;;;;5067212;28;43749;-71
2022/06/26 09:17:59;;;;;;;3.60;3.40;;;23.90;71.70;;;;;;5067115;28;43687;-70
2022/06/26 09:20:27;;;;;;;3.10;2.90;;;23.90;71.90;;;;;;5066911;28;43849;-70
2022/06/26 09:22:56;;;;;;;3.40;3.20;;;23.70;72.00;;;;;;5067378;28;43511;-70
2022/06/26 09:25:34;;;;;;;3.30;3.10;;;23.50;72.20;;;;;;5066787;28;43963;-70
2022/06/26 09:28:10;;;;;;;3.20;3.00;;;23.40;72.70;;;;;;5066948;28;44011;-70
2022/06/26 09:30:51;;;;;;;3.30;3.10;;;23.30;73.10;;;;;;5060914;28;43877;-70
2022/06/26 09:33:22;;;;;;;2.90;2.80;;;23.20;73.50;;;;;;5049076;28;43822;-70
2022/06/26 09:35:50;;;;;;;3.20;3.00;;;23.10;73.70;;;;;;5066537;28;43992;-71
2022/06/26 09:38:24;;;;;;;3.00;2.90;;;23.10;73.90;;;;;;5066811;28;44107;-70
2022/06/26 09:40:53;;;;;;;3.10;2.90;;;23.00;74.00;;;;;;5066797;28;43918;-70
2022/06/26 09:43:29;;;;;;;3.13;2.93;;;23.00;74.20;;;;;;5067140;28;43960;-69
2022/06/26 09:45:58;;;;;;;3.10;2.97;;;23.00;74.30;;;;;;5066834;28;43998;-70
2022/06/26 09:48:27;;;;;;;2.87;2.67;;;23.00;74.30;;;;;;5066442;28;43983;-71
2022/06/26 09:50:56;;;;;;;3.00;2.90;;;22.90;74.30;;;;;;5066764;28;44010;-71
2022/06/26 09:53:24;;;;;;;3.10;2.90;;;22.90;74.90;;;;;;5067104;28;44345;-71
2022/06/26 09:55:56;;;;;;;2.87;2.70;;;22.90;75.90;;;;;;5066429;28;43759;-70
2022/06/26 09:58:24;;;;;;;3.37;3.10;;;23.00;75.10;;;;;;5066460;28;43964;-69
2022/06/26 10:06:29;;;;;;;2.80;2.70;;;23.30;73.90;;;;;;5067416;28;44009;-70
2022/06/26 10:08:58;;;;;;;2.77;2.67;;;23.40;73.30;;;;;;5070186;28;43350;-70
2022/06/26 10:11:29;;;;;;;2.60;2.50;;;23.50;73.60;;;;;;5069947;28;43781;-69
2022/06/26 10:13:58;;;;;;;2.80;2.70;;;23.70;72.60;;;;;;5070547;28;43346;-70
2022/06/26 10:16:48;;;;;;;3.13;2.93;;;23.70;72.10;;;;;;5070008;28;43753;-71
2022/06/26 10:19:24;;;;;;;2.67;2.57;;;23.90;72.00;;;;;;5033547;28;43463;-69
2022/06/26 10:21:52;;;;;;;3.00;2.80;;;24.00;71.60;;;;;;5069684;28;43383;-71
2022/06/26 10:24:20;;;;;;;2.97;2.87;;;24.00;71.40;;;;;;5070376;28;43972;-70
2022/06/26 10:26:55;;;;;;;2.93;2.83;;;23.90;71.60;;;;;;5069799;28;43916;-69
2022/06/26 10:29:34;;;;;;;2.87;2.67;;;23.70;71.90;;;;;;5069683;28;44025;-70
2022/06/26 10:32:02;;;;;;;2.83;2.63;;;23.60;72.10;;;;;;5069649;28;43951;-70
2022/06/26 10:34:32;;;;;;;2.60;2.40;;;23.50;72.50;;;;;;5070035;28;43340;-70
2022/06/26 10:37:01;;;;;;;3.00;2.90;;;23.40;72.90;;;;;;5069723;28;44711;-70
2022/06/26 10:39:46;;;;;;;2.90;2.80;;;23.30;73.20;;;;;;5069488;28;44023;-70
2022/06/26 10:45:07;;;;;;;2.73;2.63;;;23.10;73.60;;;;;;5070068;28;44053;-70
2022/06/26 10:47:43;;;;;;;2.83;2.73;;;23.10;73.90;;;;;;5069393;28;43955;-69
2022/06/26 10:50:30;;;;;;;2.97;2.87;;;23.10;74.00;;;;;;5069016;28;43979;-70
2022/06/26 10:53:20;;;;;;;2.43;2.37;;;23.00;74.20;;;;;;5051042;28;44001;-70
2022/06/26 10:55:50;;;;;;;2.97;2.77;;;23.00;74.20;;;;;;5069724;28;44067;-69
2022/06/26 10:58:20;;;;;;;2.90;2.80;;;22.90;74.20;;;;;;5069170;28;43912;-69
2022/06/26 11:00:49;;;;;;;2.50;2.40;;;23.00;74.40;;;;;;5068763;28;43964;-69
2022/06/26 11:03:17;;;;;;;2.60;2.50;;;23.00;74.40;;;;;;5069121;28;43919;-71
2022/06/26 11:05:58;;;;;;;2.70;2.60;;;22.90;74.30;;;;;;5069573;28;44166;-69
2022/06/26 11:08:30;;;;;;;2.87;2.77;;;22.90;74.30;;;;;;5063315;28;43920;-70
2022/06/26 11:11:06;;;;;;;2.60;2.53;;;22.90;74.60;;;;;;5069300;28;43514;-70
2022/06/26 11:13:35;;;;;;;2.53;2.43;;;22.90;75.10;;;;;;5069200;28;43992;-70
2022/06/26 11:16:03;;;;;;;2.73;2.63;;;23.00;75.10;;;;;;5069392;28;43921;-71
2022/06/26 11:18:35;;;;;;;2.43;2.33;;;23.00;74.80;;;;;;5067946;28;44970;-70
2022/06/26 11:21:05;;;;;;;2.60;2.50;;;23.20;74.50;;;;;;5068627;28;44020;-71
2022/06/26 11:23:34;;;;;;;2.63;2.53;;;23.30;73.90;;;;;;5069117;28;43402;-69
2022/06/26 11:26:02;;;;;;;2.50;2.40;;;23.40;73.40;;;;;;5069424;28;44102;-70
2022/06/26 11:28:31;;;;;;;2.77;2.57;;;23.50;72.90;;;;;;5068733;28;44847;-70
2022/06/26 11:31:01;;;;;;;2.90;2.80;;;23.60;72.50;;;;;;5068768;28;43917;-71
2022/06/26 11:33:30;;;;;;;2.67;2.60;;;23.70;72.10;;;;;;5069391;28;43890;-72
2022/06/26 11:36:02;;;;;;;2.70;2.60;;;23.90;72.00;;;;;;5069282;28;43377;-70
2022/06/26 11:38:32;;;;;;;2.60;2.50;;;23.90;71.70;;;;;;5069047;28;43972;-71
2022/06/26 11:41:00;;;;;;;2.30;2.30;;;23.90;72.50;;;;;;5068346;28;43944;-70
2022/06/26 11:43:28;;;;;;;2.57;2.47;;;23.70;72.00;;;;;;5069160;28;43767;-70
2022/06/26 11:45:57;;;;;;;2.40;2.40;;;23.60;72.10;;;;;;5069173;28;43975;-70
2022/06/26 11:48:25;;;;;;;2.33;2.23;;;23.50;72.40;;;;;;5068416;28;43974;-70
2022/06/26 11:50:54;;;;;;;1.97;1.97;;;23.40;72.80;;;;;;5068181;28;44118;-70
2022/06/26 11:53:23;;;;;;;2.13;2.03;;;23.20;73.10;;;;;;5068082;28;44051;-70
2022/06/26 11:55:53;;;;;;;2.50;2.40;;;23.20;73.50;;;;;;5068797;28;44032;-71
2022/06/26 11:58:22;;;;;;;2.20;2.20;;;23.10;73.70;;;;;;5068313;28;43756;-70
2022/06/26 12:00:50;;;;;;;2.23;2.13;;;23.00;73.80;;;;;;5067800;28;43962;-70
2022/06/26 12:03:22;;;;;;;2.37;2.33;;;23.00;74.00;;;;;;5068131;28;43399;-70
2022/06/26 12:05:52;;;;;;;2.10;2.10;;;23.00;74.20;;;;;;5068281;28;43968;-70
2022/06/26 12:08:20;;;;;;;2.13;2.13;;;22.90;74.90;;;;;;5068293;28;44007;-70
2022/06/26 12:10:50;;;;;;;2.10;2.10;;;22.90;74.30;;;;;;5068009;28;43349;-70
2022/06/26 12:13:23;;;;;;;2.07;1.97;;;22.90;74.40;;;;;;5061443;28;43308;-71
2022/06/26 12:15:51;;;;;;;2.10;2.10;;;22.90;74.70;;;;;;5068426;28;43873;-70
2022/06/26 12:18:19;;;;;;;2.30;2.30;;;22.90;75.20;;;;;;5067774;28;43989;-70
2022/06/26 12:20:50;;;;;;;2.10;2.10;;;22.90;75.20;;;;;;5067322;28;44007;-70
2022/06/26 12:23:18;;;;;;;2.60;2.50;;;23.00;75.10;;;;;;5049695;28;43960;-69
2022/06/26 12:25:49;;;;;;;2.30;2.30;;;23.00;74.70;;;;;;5068348;28;44015;-70
2022/06/26 12:28:24;;;;;;;2.07;2.07;;;23.20;74.40;;;;;;5067546;28;44781;-70
2022/06/26 12:30:52;;;;;;;2.30;2.20;;;23.30;73.90;;;;;;5067396;28;43828;-70
2022/06/26 12:33:20;;;;;;;2.37;2.17;;;23.40;73.40;;;;;;5067843;28;44073;-69
2022/06/26 12:35:48;;;;;;;2.33;2.27;;;23.60;73.00;;;;;;5068016;28;44015;-70
2022/06/26 12:38:21;;;;;;;2.10;2.10;;;23.60;72.50;;;;;;5067710;28;43977;-71
2022/06/26 12:40:49;;;;;;;2.00;2.00;;;23.70;72.20;;;;;;5067200;28;44043;-70
2022/06/26 12:43:18;;;;;;;1.87;1.87;;;23.80;72.00;;;;;;5067703;28;43762;-71
2022/06/26 12:45:48;;;;;;;2.17;2.17;;;23.90;71.70;;;;;;5068008;28;43867;-71
2022/06/26 12:48:16;;;;;;;2.10;2.10;;;23.90;71.40;;;;;;5067507;28;44363;-70
2022/06/26 12:50:43;;;;;;;2.23;2.20;;;23.90;71.70;;;;;;5067129;28;44129;-69
2022/06/26 12:53:12;;;;;;;2.20;2.20;;;23.80;72.00;;;;;;5067376;28;44027;-70
2022/06/26 12:55:41;;;;;;;1.87;1.87;;;23.60;72.00;;;;;;5067906;28;43999;-71
2022/06/26 12:58:09;;;;;;;1.80;1.80;;;23.40;72.30;;;;;;5067290;28;43939;-72
2022/06/26 13:00:37;;;;;;;1.90;1.90;;;23.30;72.80;;;;;;5066862;28;44015;-70
2022/06/26 13:03:07;;;;;;;1.90;1.90;;;23.20;73.10;;;;;;5067285;28;43864;-70
2022/06/26 13:05:35;;;;;;;2.00;2.00;;;23.10;73.50;;;;;;5067777;28;43979;-69
2022/06/26 13:08:03;;;;;;;2.00;2.00;;;23.00;73.70;;;;;;5067075;28;44050;-70
2022/06/26 13:10:31;;;;;;;2.10;2.00;;;23.00;74.00;;;;;;5048797;28;44760;-70
2022/06/26 13:12:59;;;;;;;1.90;1.90;;;22.90;74.00;;;;;;5067265;28;43893;-69
2022/06/26 13:15:27;;;;;;;2.10;2.10;;;22.90;74.20;;;;;;5067494;28;44234;-70
2022/06/26 13:17:55;;;;;;;2.00;2.00;;;22.90;74.40;;;;;;5067158;28;43966;-70
2022/06/26 13:20:26;;;;;;;2.10;2.10;;;22.90;74.40;;;;;;5066914;28;44269;-70